Date,TemperatureHighF,TemperatureAvgF,TemperatureLowF,DewpointHighF,DewpointAvgF,DewpointLowF,HumidityHigh,HumidityAvg,HumidityLow,PressureMaxIn,PressureMinIn,WindSpeedMaxMPH,WindSpeedAvgMPH,GustSpeedMaxMPH,PrecipitationSumIn
2012-1-1,54,46,38,48,42,36,94,84,64,30.03,29.60,12,3,0,0.06
2012-1-2,50,39,31,46,24,19,87,55,43,29.76,29.60,23,8,0,0.00
2012-1-3,32,26,17,23,11,-1,74,53,41,30.07,29.74,23,7,0,0.00
2012-1-4,28,20,13,18,6,-1,65,54,34,30.16,29.90,14,6,0,0.00
2012-1-5,40,33,27,30,24,19,91,73,53,29.91,29.77,13,4,0,0.00
2012-1-6,55,44,28,34,31,23,83,62,41,29.89,29.66,14,4,0,0.00
2012-1-7,65,52,40,40,35,31,74,54,37,29.89,29.63,16,5,0,0.00
2012-1-8,48,42,34,33,27,20,69,57,48,30.23,29.90,12,4,0,0.00
2012-1-9,41,35,30,29,24,20,77,66,52,30.23,29.91,5,1,0,0.00
2012-1-10,48,39,31,33,29,26,95,70,50,29.92,29.80,18,4,0,0.00
2012-1-11,48,40,28,45,33,25,95,77,56,30.02,29.69,13,2,0,0.24
2012-1-12,52,47,44,51,46,43,98,97,95,29.68,29.31,21,4,0,1.17
2012-1-13,51,38,29,48,30,15,98,73,49,29.77,29.18,30,9,0,0.03
2012-1-14,34,30,26,21,18,16,77,61,52,30.00,29.77,21,7,0,0.00
2012-1-15,26,22,17,19,6,-2,79,50,35,30.49,30.00,18,6,0,0.00
2012-1-16,40,27,14,31,16,3,78,63,45,30.52,30.08,9,3,0,0.00
2012-1-17,56,45,37,50,42,32,96,90,76,30.07,29.47,17,6,0,0.26
2012-1-18,56,40,25,51,24,11,83,53,37,30.09,29.48,31,10,0,0.01
2012-1-19,36,29,19,27,21,12,78,72,61,30.15,29.86,7,2,0,0.00
2012-1-20,36,31,28,27,15,7,72,53,36,30.21,29.86,14,4,0,0.00
2012-1-21,34,30,28,34,26,12,100,87,48,30.19,29.86,13,1,0,0.00
2012-1-22,38,30,23,36,27,20,95,89,84,30.42,30.20,8,1,0,0.11
2012-1-23,55,46,38,54,46,37,100,97,95,30.31,29.80,20,3,0,0.53
2012-1-24,55,49,42,54,43,33,96,80,60,30.05,29.79,15,5,0,0.00
2012-1-25,46,41,37,35,31,28,88,68,56,30.22,30.05,13,4,0,0.00
2012-1-26,47,40,35,46,37,31,97,89,77,30.14,29.71,10,2,0,0.07
2012-1-27,62,52,44,60,48,33,98,86,65,29.77,29.26,25,6,0,0.19
2012-1-28,48,42,34,35,32,27,85,67,53,29.97,29.78,18,3,0,0.00
2012-1-29,45,39,32,24,18,15,56,43,33,30.13,29.95,20,6,0,0.00
2012-1-30,40,36,32,27,20,15,64,52,37,30.24,29.95,15,5,0,0.00
2012-1-31,62,49,34,36,32,18,71,52,34,30.18,29.94,18,6,0,0.00
2012-2-1,64,56,49,47,42,35,82,60,48,29.95,29.79,20,6,0,0.03
2012-2-2,53,44,38,41,34,24,88,68,58,30.15,29.89,13,5,0,0.00
2012-2-3,45,37,31,24,23,21,72,57,41,30.36,30.15,15,4,0,0.00
2012-2-4,44,38,30,29,27,23,76,64,53,30.27,30.01,8,2,0,0.00
2012-2-5,41,37,29,28,24,20,70,61,50,30.10,30.00,12,3,0,0.00
2012-2-6,52,40,27,30,26,20,81,61,39,30.10,29.90,18,6,0,0.00
2012-2-7,51,42,33,32,30,28,83,65,42,30.14,29.89,20,5,0,0.00
2012-2-8,38,35,32,32,28,22,96,78,60,30.22,30.00,7,2,0,0.00
2012-2-9,44,35,30,31,27,24,96,76,47,30.07,29.98,18,4,0,0.09
2012-2-10,49,38,29,37,28,23,91,68,45,30.07,29.84,15,3,0,0.00
2012-2-11,37,35,33,35,32,28,96,90,73,29.83,29.47,17,3,0,0.17
2012-2-12,32,28,20,29,14,4,89,59,43,29.92,29.57,22,10,0,0.00
2012-2-13,43,34,26,23,19,16,72,56,41,29.98,29.89,18,7,0,0.00
2012-2-14,47,40,34,39,28,16,95,64,34,30.03,29.91,8,2,0,0.04
2012-2-15,46,42,37,42,39,33,96,89,74,30.19,29.96,11,2,0,0.01
2012-2-16,44,39,31,43,37,30,97,91,80,30.20,29.93,4,1,0,0.12
2012-2-17,51,45,36,44,36,25,97,75,43,29.94,29.84,15,4,0,0.00
2012-2-18,50,41,31,38,28,22,88,60,37,30.02,29.78,11,4,0,0.01
2012-2-19,43,38,31,33,28,23,91,68,46,30.00,29.84,12,3,0,0.01
2012-2-20,47,38,29,26,21,15,78,52,33,30.25,29.86,17,7,0,0.00
2012-2-21,47,38,25,41,30,19,91,74,51,30.27,29.78,12,2,0,0.00
2012-2-22,59,48,38,45,38,29,96,74,33,29.77,29.39,14,3,0,0.00
2012-2-23,61,53,47,47,38,28,88,61,32,29.67,29.30,21,6,0,0.00
2012-2-24,47,44,40,46,41,34,97,89,59,29.63,29.22,19,6,0,0.37
2012-2-25,44,40,36,34,25,18,69,55,42,29.95,29.37,26,13,0,0.00
2012-2-26,45,36,31,30,18,13,82,48,35,30.36,29.96,23,6,0,0.00
2012-2-27,59,46,30,40,33,25,92,65,34,30.35,30.01,11,5,0,0.00
2012-2-28,52,44,36,36,28,24,83,55,34,30.29,30.04,23,4,0,0.00
2012-2-29,46,42,37,44,40,33,97,91,80,30.29,29.64,19,3,0,0.56
2012-3-1,46,42,39,44,41,38,98,95,87,29.87,21.51,13,3,0,0.25
2012-3-2,45,41,37,44,37,34,96,88,81,30.03,29.68,9,3,0,0.07
2012-3-3,57,52,45,54,43,25,98,76,36,29.67,29.39,16,5,0,0.15
2012-3-4,45,41,35,28,24,20,67,51,39,29.68,29.49,18,5,0,0.00
2012-3-5,44,37,31,26,19,8,74,49,33,30.29,29.69,15,6,0,0.00
2012-3-6,43,34,24,28,18,9,77,54,30,32.00,30.30,11,3,0,0.00
2012-3-7,65,50,35,46,36,28,84,62,31,30.51,30.24,20,6,0,0.00
2012-3-8,71,61,52,53,50,46,84,69,49,30.24,29.78,27,9,0,0.00
2012-3-9,64,47,38,54,31,20,89,56,35,30.18,29.75,19,9,0,0.04
2012-3-10,43,36,30,30,16,10,71,46,35,30.45,30.18,12,4,0,0.00
2012-3-11,60,46,30,36,28,22,76,52,32,30.46,30.26,18,6,0,0.00
2012-3-12,72,56,41,47,38,34,76,54,28,30.28,30.04,11,4,0,0.00
2012-3-13,75,63,54,59,55,47,96,75,52,30.04,29.84,13,5,0,0.16
2012-3-14,72,63,51,58,40,23,91,51,16,30.09,29.89,16,4,0,0.00
2012-3-15,52,46,44,45,43,32,97,89,49,30.24,30.08,13,5,0,0.01
2012-3-16,50,46,44,49,46,44,98,97,93,30.20,30.03,8,2,0,0.01
2012-3-17,57,48,40,53,45,40,100,90,72,30.28,30.10,6,1,0,0.01
2012-3-18,64,51,45,52,48,44,97,87,65,30.29,30.12,6,2,0,0.00
2012-3-19,72,59,46,60,52,45,97,79,47,30.14,30.06,7,2,0,0.00
2012-3-20,66,58,53,61,56,53,99,92,80,30.23,30.13,6,1,0,0.00
2012-3-21,63,58,55,60,57,54,99,96,87,30.26,30.19,6,1,0,0.01
2012-3-22,71,61,56,65,59,56,99,91,75,30.20,30.00,6,2,0,0.01
2012-3-23,72,61,53,61,54,45,98,79,57,30.00,29.94,14,3,0,0.00
2012-3-24,59,53,48,50,45,39,95,77,49,29.99,29.87,15,4,0,0.18
2012-3-25,51,47,44,47,45,42,96,91,82,29.87,29.65,15,5,0,0.18
2012-3-26,55,47,36,48,29,9,96,57,24,30.03,29.61,31,9,0,0.01
2012-3-27,52,39,31,26,8,2,57,29,14,30.20,30.04,19,6,0,0.00
2012-3-28,69,53,38,53,38,22,70,58,42,30.08,29.45,14,6,0,0.01
2012-3-29,62,54,44,52,39,30,70,57,47,29.93,29.48,19,8,0,0.00
2012-3-30,53,45,36,39,31,27,77,59,38,30.00,29.84,13,3,0,0.00
2012-3-31,46,43,40,43,41,38,96,93,74,29.90,29.75,11,4,0,0.55
2012-4-1,53,46,42,45,42,40,97,87,62,29.82,29.53,9,3,0,0.11
2012-4-2,57,49,42,45,32,19,97,57,25,29.79,29.48,23,8,0,0.10
2012-4-3,65,52,39,25,21,17,53,32,17,29.86,29.68,17,5,0,0.00
2012-4-4,71,59,52,36,29,20,50,34,20,29.69,29.42,25,5,0,0.00
2012-4-5,58,49,40,38,31,24,74,52,36,29.82,29.63,15,4,0,0.00
2012-4-6,58,48,36,29,24,17,71,43,22,29.93,29.79,14,6,0,0.00
2012-4-7,61,51,38,23,20,15,51,32,19,30.00,29.85,20,6,0,0.00
2012-4-8,67,56,40,35,24,21,47,31,18,29.93,29.57,21,8,0,0.00
2012-4-9,63,57,50,32,28,23,46,33,24,29.67,29.55,24,11,0,0.00
2012-4-10,61,53,46,39,31,27,70,45,28,29.72,29.59,21,6,0,0.00
2012-4-11,54,47,39,36,33,28,82,59,38,29.81,29.69,13,5,0,0.00
2012-4-12,58,50,42,38,36,31,81,60,36,30.02,29.81,17,5,0,0.00
2012-4-13,62,53,42,39,34,30,68,51,33,30.12,30.03,9,3,0,0.00
2012-4-14,72,61,46,44,35,28,65,40,21,30.13,29.94,16,4,0,0.00
2012-4-15,80,68,60,59,53,44,70,59,48,29.96,29.86,12,4,0,0.00
2012-4-16,85,74,61,64,60,56,86,63,41,29.94,29.81,7,2,0,0.00
2012-4-17,80,73,63,60,46,31,74,43,17,30.03,29.82,15,5,0,0.00
2012-4-18,64,56,52,44,37,30,75,50,35,30.16,30.04,13,3,0,0.00
2012-4-19,68,56,50,52,48,45,90,76,51,30.05,29.92,7,1,0,0.00
2012-4-20,65,56,44,56,50,43,97,81,57,29.95,29.76,5,1,0,0.00
2012-4-21,74,64,56,62,58,54,97,83,63,29.77,29.57,10,2,0,0.03
2012-4-22,61,52,49,59,51,48,98,94,84,29.68,29.14,18,6,0,3.24
2012-4-23,57,51,42,57,48,37,98,89,73,29.35,29.02,15,5,0,0.09
2012-4-24,61,49,37,46,34,26,93,61,28,29.62,29.34,17,5,0,0.00
2012-4-25,64,52,36,46,36,29,92,58,31,29.81,29.63,13,1,0,0.00
2012-4-26,60,52,39,56,48,35,98,89,74,29.83,29.50,6,1,0,0.01
2012-4-27,58,51,42,58,36,28,98,58,40,30.07,29.50,24,7,0,0.00
2012-4-28,59,48,35,37,30,26,88,53,34,30.17,30.03,14,4,0,0.00
2012-4-29,65,54,41,39,27,17,80,41,16,30.15,29.97,17,5,0,0.00
2012-4-30,57,50,36,46,33,21,79,54,30,30.25,30.11,9,2,0,0.00
2012-5-1,74,60,54,61,56,46,97,85,64,30.11,29.87,15,2,0,0.34
2012-5-2,55,51,50,53,50,49,97,95,91,30.09,29.98,11,3,0,0.65
2012-5-3,59,54,51,57,53,50,98,95,90,30.13,29.98,5,0,0,0.24
2012-5-4,79,63,54,67,60,54,99,90,64,30.01,29.74,8,2,0,0.14
2012-5-5,61,56,54,60,56,53,98,97,95,29.95,29.76,8,2,0,0.17
2012-5-6,60,55,49,54,52,48,96,89,69,30.04,29.94,7,1,0,0.00
2012-5-7,64,55,46,55,49,45,98,80,56,30.06,30.00,6,0,0,0.01
2012-5-8,70,62,55,59,54,49,87,78,62,30.01,29.74,8,2,0,0.01
2012-5-9,67,64,62,66,64,60,98,96,84,29.74,29.46,9,2,0,0.91
2012-5-10,66,59,48,60,48,37,97,71,38,29.76,29.42,21,6,0,0.27
2012-5-11,71,59,46,44,39,33,84,51,25,30.03,29.77,19,5,0,0.00
2012-5-12,79,65,47,50,44,38,80,49,27,30.15,30.03,8,2,0,0.00
2012-5-13,82,70,58,61,54,48,77,58,34,30.10,29.98,15,4,0,0.00
2012-5-14,72,67,63,62,60,57,89,78,65,30.07,29.99,10,2,0,0.00
2012-5-15,70,64,61,69,62,59,98,94,87,30.03,29.84,2,0,0,0.29
2012-5-16,79,70,63,70,66,63,98,87,65,29.85,29.74,6,1,0,0.02
2012-5-17,72,64,53,63,47,40,90,58,33,30.04,29.81,11,3,0,0.00
2012-5-18,67,58,46,55,46,42,96,67,42,30.14,30.03,11,2,0,0.00
2012-5-19,75,62,47,52,48,44,91,64,38,30.08,30.02,11,2,0,0.00
2012-5-20,71,62,51,60,51,33,96,72,25,30.14,30.04,18,4,0,0.00
2012-5-21,62,60,59,61,60,58,100,98,96,30.10,29.87,11,3,0,1.61
2012-5-22,72,65,61,66,63,61,99,94,78,29.87,29.72,8,3,0,0.30
2012-5-23,75,68,64,68,65,63,98,91,77,29.94,29.77,4,1,0,0.01
2012-5-24,68,65,64,66,64,63,98,97,95,30.09,29.94,6,1,0,0.02
2012-5-25,78,68,63,72,67,63,99,95,80,30.10,30.03,7,1,0,0.00
2012-5-26,86,75,65,75,70,64,98,83,61,30.06,29.97,9,2,0,0.01
2012-5-27,82,74,70,71,68,62,96,81,59,30.07,29.92,12,2,0,0.00
2012-5-28,89,77,70,73,70,68,92,79,60,29.91,29.81,8,2,0,0.00
2012-5-29,92,81,71,76,72,66,93,75,52,29.82,29.60,21,4,0,0.00
2012-5-30,77,72,67,71,68,62,95,85,62,29.70,29.61,5,1,0,0.01
2012-5-31,81,72,62,67,58,51,98,66,36,29.84,29.61,13,3,0,0.01
2012-6-1,69,65,59,66,60,54,96,84,70,29.91,29.66,15,4,0,0.25
2012-6-2,75,68,59,68,58,49,98,73,49,29.68,29.55,20,4,0,0.61
2012-6-3,76,63,53,62,54,50,92,74,45,29.68,29.55,21,4,0,0.12
2012-6-4,62,58,55,58,54,50,97,88,70,29.70,29.51,11,3,0,0.73
2012-6-5,66,59,50,54,50,47,91,73,55,29.85,29.70,10,3,0,0.00
2012-6-6,70,61,49,60,54,48,96,80,56,29.91,29.85,6,1,0,0.01
2012-6-7,75,64,56,63,58,55,95,81,52,29.89,29.82,7,2,0,0.21
2012-6-8,82,70,55,61,57,53,97,69,39,29.86,29.73,13,2,0,0.00
2012-6-9,82,72,62,64,59,55,81,64,43,29.89,29.78,13,2,0,0.00
2012-6-10,82,73,66,69,66,62,95,79,60,30.08,29.88,5,0,0,0.02
2012-6-11,73,68,66,65,63,60,95,84,67,30.15,30.05,7,1,0,0.00
2012-6-12,73,68,65,68,66,63,98,93,84,30.08,29.79,11,0,0,0.68
2012-6-13,69,66,64,67,66,63,98,97,93,29.96,29.74,13,3,0,0.48
2012-6-14,70,66,60,65,63,58,98,90,80,30.16,29.96,10,2,0,0.00
2012-6-15,76,66,56,62,56,50,100,72,43,30.20,30.14,13,2,0,0.00
2012-6-16,76,66,56,61,57,50,96,75,41,30.23,30.14,12,2,0,0.00
2012-6-17,68,63,56,59,57,53,91,80,70,30.14,30.01,7,2,0,0.00
2012-6-18,69,62,54,60,57,52,95,83,68,30.06,30.00,5,1,0,0.00
2012-6-19,80,69,61,70,64,58,94,85,70,30.09,29.98,5,0,0,0.00
2012-6-20,96,82,68,77,71,65,95,71,47,29.99,29.85,7,3,0,0.00
2012-6-21,96,86,75,75,72,69,88,64,42,29.86,29.69,12,3,0,0.00
2012-6-22,94,79,71,75,72,70,97,80,48,29.75,29.66,8,1,0,0.37
2012-6-23,86,76,68,70,63,57,98,69,40,29.88,29.71,13,3,0,0.01
2012-6-24,84,73,59,68,62,57,92,70,42,29.93,29.80,6,1,0,0.00
2012-6-25,77,70,62,70,66,60,97,87,61,29.81,29.55,13,1,0,1.10
2012-6-26,74,65,55,59,53,50,89,68,52,29.70,29.60,14,4,0,0.00
2012-6-27,83,71,58,57,53,50,75,54,34,29.75,29.65,24,6,0,0.00
2012-6-28,90,78,63,66,60,54,77,56,38,29.77,29.63,12,3,0,0.00
2012-6-29,95,82,69,76,71,63,96,71,54,29.65,29.54,11,3,0,0.28
2012-6-30,95,84,73,74,69,59,89,64,33,29.70,29.56,11,3,0,0.00
2012-7-1,95,83,70,73,69,63,90,65,43,29.76,29.65,15,3,0,0.00
2012-7-2,88,79,67,63,60,57,79,55,36,29.83,29.75,12,2,0,0.00
2012-7-3,89,78,65,72,64,59,83,65,40,29.87,29.74,9,1,0,0.00
2012-7-4,93,82,72,74,71,69,94,71,49,29.78,29.62,12,3,0,0.07
2012-7-5,94,85,76,76,70,66,88,64,40,29.76,29.62,9,3,0,0.00
2012-7-6,88,80,69,72,69,64,92,72,48,29.83,29.75,9,1,0,0.00
2012-7-7,98,83,74,76,72,68,93,72,40,29.80,29.67,12,3,0,0.21
2012-7-8,88,80,74,73,72,69,95,77,56,29.77,29.71,10,1,0,0.00
2012-7-9,82,77,69,71,64,61,89,65,52,29.89,29.75,9,2,0,0.00
2012-7-10,85,74,67,70,66,62,92,75,54,29.99,29.88,5,1,0,0.00
2012-7-11,83,74,65,72,66,63,97,78,56,30.09,29.98,6,0,0,0.00
2012-7-12,85,75,66,69,65,61,95,72,48,30.11,30.05,5,0,0,0.00
2012-7-13,89,78,67,71,67,63,89,71,50,30.12,30.05,6,1,0,0.00
2012-7-14,83,76,70,69,68,65,89,75,59,30.12,30.05,10,2,0,0.01
2012-7-15,89,80,72,78,74,68,96,82,65,30.07,29.84,13,3,0,0.13
2012-7-16,90,80,70,74,72,69,97,78,55,29.86,29.70,12,3,0,0.01
2012-7-17,96,85,74,72,68,65,83,60,39,29.77,29.66,15,3,0,0.00
2012-7-18,100,84,74,79,74,71,97,72,44,29.79,29.67,16,3,0,0.38
2012-7-19,75,74,72,74,70,65,98,88,73,29.89,29.77,8,2,0,0.01
2012-7-20,74,68,64,70,65,63,97,91,81,29.95,29.82,15,6,0,0.43
2012-7-21,74,69,63,64,62,59,95,79,59,30.04,29.92,11,2,0,0.00
2012-7-22,80,71,59,67,63,58,97,79,55,30.08,30.02,9,1,0,0.00
2012-7-23,91,79,67,77,71,64,95,77,52,30.04,29.73,11,4,0,0.00
2012-7-24,94,84,74,75,70,63,92,67,43,29.73,29.48,15,5,0,0.00
2012-7-25,79,73,66,63,57,53,69,58,45,29.80,29.63,12,4,0,0.00
2012-7-26,72,72,72,71,71,71,96,96,95,29.66,29.63,5,3,0,0.25
2012-7-27,90,80,71,75,72,70,98,80,54,29.77,29.57,13,3,0,0.02
2012-7-28,83,76,69,78,74,67,96,91,80,29.88,29.76,14,2,0,0.31
2012-7-29,79,73,68,71,69,67,98,89,75,29.96,29.81,7,1,0,0.03
2012-7-30,78,72,67,70,68,66,98,86,72,30.03,29.95,6,1,0,0.00
2012-7-31,79,73,67,70,68,66,96,85,69,29.99,29.82,9,2,0,0.00
2012-8-1,82,73,68,74,70,67,97,93,76,29.85,29.75,9,1,0,0.16
2012-8-2,90,78,67,76,72,67,98,82,51,29.84,29.75,8,2,0,0.01
2012-8-3,90,81,73,79,75,69,97,83,60,30.01,29.84,6,1,0,0.00
2012-8-4,88,80,72,78,75,71,97,86,63,30.11,30.00,6,1,0,0.00
2012-8-5,93,82,72,79,76,71,96,82,54,30.10,29.88,15,3,0,0.90
2012-8-6,88,79,70,76,70,64,98,77,46,29.93,29.86,13,3,0,0.27
2012-8-7,82,74,65,69,66,61,90,76,57,29.93,29.88,5,0,0,0.00
2012-8-8,84,76,70,76,72,68,97,88,67,29.90,29.84,5,0,0,0.00
2012-8-9,87,78,71,76,73,70,98,86,64,29.88,29.78,3,0,0,0.00
2012-8-10,81,76,70,77,74,69,97,93,86,29.80,29.66,9,0,0,2.16
2012-8-11,86,77,73,78,74,72,98,89,69,29.83,29.70,14,2,0,0.01
2012-8-12,86,78,71,72,68,64,97,75,51,29.87,29.79,8,2,0,0.00
2012-8-13,85,74,63,66,64,61,94,71,45,29.93,29.85,11,2,0,0.00
2012-8-14,81,73,65,74,70,64,96,89,72,29.89,29.78,3,0,0,0.14
2012-8-15,86,75,68,76,71,67,98,88,65,29.80,29.73,10,1,0,0.59
2012-8-16,85,74,66,69,65,61,98,77,46,29.83,29.77,12,2,0,0.00
2012-8-17,89,76,63,74,67,60,94,75,48,29.82,29.68,14,2,0,0.01
2012-8-18,80,71,65,71,65,61,96,82,57,29.84,29.73,13,3,0,0.19
2012-8-19,75,68,59,63,59,56,93,74,53,29.89,29.83,5,1,0,0.00
2012-8-20,78,71,63,64,62,60,92,76,55,29.84,29.76,9,0,0,0.00
2012-8-21,81,71,65,66,64,62,92,78,54,30.00,29.84,8,1,0,0.00
2012-8-22,82,72,62,69,65,61,98,80,56,30.05,29.99,4,0,0,0.00
2012-8-23,84,73,63,69,66,61,97,80,52,30.08,30.01,7,0,0,0.00
2012-8-24,84,74,64,72,67,63,97,81,54,30.09,30.03,6,1,0,0.00
2012-8-25,80,73,68,73,69,66,95,86,75,30.18,30.09,7,1,0,0.00
2012-8-26,79,74,69,70,68,65,91,81,71,30.22,30.13,11,2,0,0.00
2012-8-27,81,75,69,76,72,68,97,92,80,30.13,29.87,6,0,0,1.06
2012-8-28,87,78,71,74,69,62,97,77,49,29.87,29.72,12,4,0,0.11
2012-8-29,80,71,63,63,60,55,91,70,48,29.93,29.80,11,2,0,0.00
2012-8-30,83,71,58,66,60,56,94,70,43,30.02,29.93,8,2,0,0.00
2012-8-31,91,77,64,73,65,60,97,70,37,29.98,29.82,12,3,0,0.00
2012-9-1,90,79,73,73,68,59,92,70,40,29.96,29.84,11,3,0,0.00
2012-9-2,80,75,72,73,72,70,97,88,76,29.98,29.92,7,0,0,0.15
2012-9-3,76,73,70,72,70,67,97,91,78,30.05,29.97,9,1,0,0.04
2012-9-4,78,74,70,76,73,69,99,97,90,29.98,29.77,5,0,0,1.40
2012-9-5,84,76,69,79,75,68,98,95,81,29.77,29.68,14,2,0,0.87
2012-9-6,79,72,64,74,69,64,98,91,80,29.83,29.74,4,0,0,0.01
2012-9-7,88,77,69,77,72,67,99,84,63,29.84,29.74,7,1,0,0.01
2012-9-8,84,74,64,78,72,63,98,92,72,29.78,29.50,12,1,0,0.63
2012-9-9,78,68,62,64,62,56,98,82,48,29.80,29.68,9,2,0,0.02
2012-9-10,73,64,56,58,53,48,93,69,45,30.04,29.79,15,4,0,0.00
2012-9-11,74,61,50,55,50,44,91,69,39,30.20,30.04,8,2,0,0.00
2012-9-12,79,65,52,60,56,51,97,74,44,30.27,30.20,5,1,0,0.00
2012-9-13,78,66,54,63,59,53,98,81,55,30.29,30.19,4,0,0,0.00
2012-9-14,79,67,55,66,61,54,100,83,56,30.19,30.00,4,0,0,0.00
2012-9-15,72,66,58,62,55,50,94,70,49,30.04,29.97,17,4,0,0.00
2012-9-16,75,63,52,55,52,49,91,69,43,30.04,29.93,8,2,0,0.00
2012-9-17,78,64,49,63,53,48,95,73,43,30.03,29.94,7,1,0,0.00
2012-9-18,76,73,68,73,69,63,97,89,85,29.94,29.58,21,3,0,1.12
2012-9-19,70,64,56,67,54,48,97,71,46,30.08,29.65,13,4,0,0.00
2012-9-20,71,62,53,62,57,50,92,84,68,30.10,30.00,9,2,0,0.00
2012-9-21,71,63,55,62,58,54,98,84,64,30.02,29.92,8,1,0,0.00
2012-9-22,78,66,53,70,63,52,100,89,75,29.91,29.70,9,1,0,0.22
2012-9-23,69,62,53,65,51,43,97,70,41,30.03,29.77,17,4,0,0.00
2012-9-24,67,57,48,49,46,42,91,70,41,30.08,30.01,12,3,0,0.00
2012-9-25,73,60,44,57,51,42,93,75,48,30.12,30.03,15,3,0,0.00
2012-9-26,79,70,62,66,62,57,86,75,61,30.06,29.92,13,3,0,0.00
2012-9-27,76,68,64,66,64,62,97,89,69,30.08,29.95,5,1,0,0.09
2012-9-28,78,71,66,72,68,65,96,90,75,30.06,29.83,10,2,0,0.07
2012-9-29,67,62,56,65,58,54,97,89,72,29.84,29.78,6,2,0,0.08
2012-9-30,69,60,54,57,53,51,97,81,55,29.78,29.68,12,2,0,0.00
2012-10-1,71,60,49,56,51,48,97,75,46,29.89,29.75,18,4,0,0.00
2012-10-2,71,67,60,71,63,54,98,88,70,29.92,29.84,6,1,0,0.17
2012-10-3,73,69,66,72,69,66,99,98,95,30.02,29.87,8,1,0,0.01
2012-10-4,77,71,67,73,70,66,99,96,86,30.05,29.94,4,0,0,0.07
2012-10-5,80,68,59,66,62,57,98,82,50,29.99,29.86,8,2,0,0.01
2012-10-6,80,65,53,65,59,49,96,81,56,29.91,29.67,16,4,0,0.00
2012-10-7,52,50,45,51,47,43,96,91,79,30.03,29.91,6,2,0,0.11
2012-10-8,54,49,42,49,46,42,98,89,73,30.19,30.02,6,1,0,0.01
2012-10-9,59,57,54,59,54,46,98,92,73,30.11,29.96,10,5,0,0.21
2012-10-10,67,60,56,60,56,42,99,86,57,29.96,29.72,14,4,0,1.47
2012-10-11,60,51,45,43,40,36,86,67,42,30.12,29.90,17,4,0,0.00
2012-10-12,58,48,41,46,38,30,96,69,49,30.33,30.00,9,3,0,0.00
2012-10-13,55,45,32,43,34,28,89,67,38,30.43,30.22,10,1,0,0.00
2012-10-14,73,61,47,59,52,44,90,75,50,30.22,29.86,19,5,0,0.00
2012-10-15,75,67,60,64,62,59,96,84,67,29.85,29.54,17,4,0,0.04
2012-10-16,60,54,43,59,44,39,95,73,48,29.83,29.57,18,5,0,0.00
2012-10-17,61,50,38,50,43,37,96,79,53,29.93,29.82,7,1,0,0.00
2012-10-18,66,56,42,64,52,41,99,88,67,29.95,29.82,5,0,0,0.01
2012-10-19,69,66,64,67,64,61,98,96,89,29.82,29.56,7,1,0,0.26
2012-10-20,70,62,51,65,54,44,99,78,47,29.75,29.56,12,3,0,0.02
2012-10-21,65,55,46,46,44,42,87,68,46,29.95,29.75,11,4,0,0.00
2012-10-22,68,57,47,48,45,42,84,66,44,30.03,29.93,15,4,0,0.00
2012-10-23,68,57,45,58,51,43,95,81,56,30.04,29.96,4,0,0,0.01
2012-10-24,61,60,58,59,58,56,97,93,89,30.09,29.98,6,2,0,0.00
2012-10-25,62,60,55,59,57,53,97,90,85,30.16,30.09,7,1,0,0.00
2012-10-26,67,62,56,61,59,55,96,91,79,30.13,30.01,4,1,0,0.00
2012-10-27,64,61,60,60,56,50,94,82,72,30.00,29.79,13,3,0,0.00
2012-10-28,60,58,56,55,52,44,96,80,58,29.79,29.50,23,8,0,0.06
2012-10-29,63,57,53,63,55,51,98,93,82,29.50,28.22,33,15,0,2.45
2012-10-30,55,52,47,52,47,41,93,84,74,29.40,28.80,14,4,0,0.19
2012-10-31,47,46,46,42,42,41,84,83,82,29.40,29.40,4,2,0,0.00
2012-11-7,43,36,33,37,34,32,97,91,73,29.82,29.67,18,5,0,0.21
2012-11-8,33,33,33,33,33,33,97,97,97,29.68,29.68,0,0,0,0.00
2012-11-12,62,62,61,60,60,59,95,93,92,30.15,30.10,6,3,0,0.01
2012-11-13,63,49,37,61,45,32,97,86,70,30.34,30.02,14,4,0,0.09
2012-11-14,47,41,36,35,32,28,83,71,59,30.41,30.34,10,3,0,0.00
2012-11-15,47,40,35,46,34,31,97,81,70,30.36,30.20,13,2,0,0.00
2012-11-16,48,40,36,35,32,30,86,73,56,30.33,30.19,11,3,0,0.00
2012-11-17,51,42,33,40,34,30,92,76,60,30.53,30.33,13,2,0,0.00
2012-11-18,49,45,37,43,40,35,93,81,71,30.55,30.44,13,4,0,0.00
2012-11-19,48,46,43,44,42,40,89,84,79,30.44,30.14,16,5,0,0.00
2012-11-20,50,44,38,41,38,31,96,80,49,30.13,30.01,7,2,0,0.00
2012-11-21,53,44,37,41,38,34,96,79,52,30.13,30.03,10,2,0,0.00
2012-11-22,54,44,37,47,40,35,96,87,67,30.17,30.04,9,2,0,0.00
2012-11-23,58,46,34,49,42,33,99,90,62,30.03,29.60,5,2,0,0.03
2012-11-24,48,41,36,46,28,24,93,61,46,29.79,29.59,25,9,0,0.00
2012-11-25,42,36,32,26,25,22,75,64,53,29.90,29.78,15,5,0,0.00
2012-11-26,49,38,30,33,26,24,81,64,42,30.16,29.89,14,3,0,0.00
2012-11-27,41,39,32,40,36,26,96,89,70,30.19,30.08,9,3,0,0.46
2012-11-28,42,36,31,36,30,25,94,77,54,30.21,30.07,13,4,0,0.00
2012-11-29,45,37,30,28,26,24,81,67,48,30.29,30.20,14,4,0,0.00
2012-11-30,48,41,30,44,35,28,92,79,52,30.32,30.23,10,2,0,0.00
2012-12-1,47,45,43,45,42,40,96,91,87,30.39,30.31,14,5,0,0.00
2012-12-2,56,47,40,50,45,39,99,92,75,30.31,30.02,8,2,0,0.03
2012-12-3,63,54,48,54,50,47,96,86,66,30.17,30.03,11,3,0,0.01
2012-12-4,67,56,46,57,53,45,98,90,71,30.17,29.90,6,1,0,0.00
2012-12-5,59,52,35,54,41,21,90,68,49,30.16,29.82,18,8,0,0.00
2012-12-6,41,34,29,31,22,21,86,65,46,30.28,30.14,10,2,0,0.00
2012-12-7,47,41,30,46,38,26,96,91,84,30.20,29.92,4,0,0,0.12
2012-12-8,52,50,47,51,49,46,99,97,94,29.92,29.78,8,2,0,0.37
2012-12-9,52,48,43,52,47,41,99,96,90,30.14,29.89,12,4,0,0.34
2012-12-10,63,59,50,63,59,50,99,99,98,29.88,29.46,9,2,0,0.17
2012-12-11,61,46,41,60,41,34,98,82,66,30.10,29.48,12,4,0,0.10
2012-12-12,44,40,34,37,30,26,93,70,51,30.34,30.10,8,2,0,0.00
2012-12-13,46,38,30,36,30,27,90,75,51,30.37,30.23,7,2,0,0.00
2012-12-14,50,40,30,32,29,27,88,68,45,30.23,30.06,10,3,0,0.00
2012-12-15,48,42,32,41,34,29,91,76,66,30.22,30.09,6,2,0,0.00
2012-12-16,53,50,47,51,47,42,98,91,81,30.09,29.80,13,3,0,0.30
2012-12-17,52,46,43,52,46,43,99,98,97,29.79,29.51,10,4,0,0.14
2012-12-18,58,52,42,55,48,36,99,86,66,29.55,29.37,18,6,0,0.24
2012-12-19,49,43,39,36,32,29,80,65,49,30.04,29.55,22,7,0,0.00
2012-12-20,51,41,32,47,34,28,92,77,67,30.13,29.68,9,2,0,0.00
2012-12-21,57,46,37,56,41,29,97,81,65,29.64,29.04,21,9,0,0.49
2012-12-22,41,38,36,33,27,22,88,64,48,29.77,29.27,35,11,0,0.00
2012-12-23,44,37,32,28,25,22,72,62,42,29.89,29.77,14,5,0,0.00
2012-12-24,41,36,28,41,29,23,97,76,56,30.00,29.82,6,1,0,0.01
2012-12-25,43,39,34,41,35,29,98,86,73,30.16,29.79,16,4,0,0.00
2012-12-26,48,38,31,47,35,27,97,89,80,30.17,29.26,32,8,0,0.11
2012-12-27,52,39,31,52,35,23,98,85,69,29.77,29.13,34,12,0,0.22
2012-12-28,39,34,29,28,26,22,89,73,63,29.99,29.78,16,6,0,0.00
2012-12-29,39,34,30,37,32,26,97,92,84,29.95,29.40,14,4,0,0.01
2012-12-30,38,33,29,30,21,15,88,62,48,30.12,29.52,29,11,0,0.00
2012-12-31,41,35,28,30,24,16,74,64,58,30.14,29.82,19,6,0,0.00
2013-1-1,42,39,30,32,29,18,77,68,56,29.93,29.75,15,6,0,0.00